Terminal Aerodrome Forecast
Issued by NWS

Home | Current Version | Previous Version | Text Only | Print | Product List | Glossary On
Versions: 1 2 3 4 5 6 7 8 9 10 11 12 13 14 15 16
408
FTAK31 PAJN 230521
TAFAJN
TAF
PAJN 230521Z 2306/2406 VRB04KT P6SM -SN FEW035 OVC060
     FM230900 00000KT P6SM BCFG FEW001 SCT050 OVC070
     FM231500 09005KT P6SM VCSH SCT035 OVC045
     FM232000 10007KT 3SM -SN BR BKN025 OVC035
     FM240000 11010KT 5SM -SN BKN025 OVC040=

USA.gov is the U.S. government's official web portal to all federal, state and local government web resources and services.